sensor_id;sensor_type;location;lat;lon;timestamp;temperature;humidity
26909;DHT22;14477;51.038;4.588;2022-09-03T00:02:06;21.30;40.60
26909;DHT22;14477;51.038;4.588;2022-09-03T00:04:46;21.30;40.90
26909;DHT22;14477;51.038;4.588;2022-09-03T00:07:21;21.20;41.20
26909;DHT22;14477;51.038;4.588;2022-09-03T00:09:50;21.20;41.00
26909;DHT22;14477;51.038;4.588;2022-09-03T00:12:23;21.20;40.90
26909;DHT22;14477;51.038;4.588;2022-09-03T00:14:56;21.20;41.10
26909;DHT22;14477;51.038;4.588;2022-09-03T00:17:28;21.20;41.30
26909;DHT22;14477;51.038;4.588;2022-09-03T00:20:05;21.20;41.30
26909;DHT22;14477;51.038;4.588;2022-09-03T00:22:35;21.10;41.50
26909;DHT22;14477;51.038;4.588;2022-09-03T00:25:03;21.10;41.20
26909;DHT22;14477;51.038;4.588;2022-09-03T00:27:36;21.10;41.30
26909;DHT22;14477;51.038;4.588;2022-09-03T00:30:11;21.10;41.70
26909;DHT22;14477;51.038;4.588;2022-09-03T00:35:33;21.20;42.20
26909;DHT22;14477;51.038;4.588;2022-09-03T00:38:01;21.10;41.90
26909;DHT22;14477;51.038;4.588;2022-09-03T00:46:24;21.10;42.30
26909;DHT22;14477;51.038;4.588;2022-09-03T00:57:57;21.10;42.70
26909;DHT22;14477;51.038;4.588;2022-09-03T01:00:24;21.00;42.10
26909;DHT22;14477;51.038;4.588;2022-09-03T01:11:07;20.90;42.50
26909;DHT22;14477;51.038;4.588;2022-09-03T01:13:41;20.90;42.60
26909;DHT22;14477;51.038;4.588;2022-09-03T01:16:51;20.80;42.70
26909;DHT22;14477;51.038;4.588;2022-09-03T01:30:37;20.80;44.00
26909;DHT22;14477;51.038;4.588;2022-09-03T01:41:16;20.70;44.20
26909;DHT22;14477;51.038;4.588;2022-09-03T01:52:29;20.60;43.90
26909;DHT22;14477;51.038;4.588;2022-09-03T01:58:16;20.60;44.60
26909;DHT22;14477;51.038;4.588;2022-09-03T02:00:47;20.60;44.40
26909;DHT22;14477;51.038;4.588;2022-09-03T02:03:15;20.60;43.70
26909;DHT22;14477;51.038;4.588;2022-09-03T02:05:41;20.60;43.70
26909;DHT22;14477;51.038;4.588;2022-09-03T02:08:09;20.60;43.90
26909;DHT22;14477;51.038;4.588;2022-09-03T02:10:50;20.60;44.10
26909;DHT22;14477;51.038;4.588;2022-09-03T02:15:48;20.60;44.60
26909;DHT22;14477;51.038;4.588;2022-09-03T02:18:18;20.60;44.20
26909;DHT22;14477;51.038;4.588;2022-09-03T02:20:45;20.60;44.50
26909;DHT22;14477;51.038;4.588;2022-09-03T02:23:13;20.60;44.50
26909;DHT22;14477;51.038;4.588;2022-09-03T02:25:50;20.60;44.50
26909;DHT22;14477;51.038;4.588;2022-09-03T02:28:16;20.60;45.20
26909;DHT22;14477;51.038;4.588;2022-09-03T02:30:42;20.60;44.50
26909;DHT22;14477;51.038;4.588;2022-09-03T02:33:08;20.60;44.60
26909;DHT22;14477;51.038;4.588;2022-09-03T02:35:34;20.50;44.70
26909;DHT22;14477;51.038;4.588;2022-09-03T02:38:22;20.50;44.80
26909;DHT22;14477;51.038;4.588;2022-09-03T02:40:50;20.60;45.80
26909;DHT22;14477;51.038;4.588;2022-09-03T02:43:29;20.50;44.80
26909;DHT22;14477;51.038;4.588;2022-09-03T02:46:01;20.50;45.70
26909;DHT22;14477;51.038;4.588;2022-09-03T02:48:28;20.50;45.30
26909;DHT22;14477;51.038;4.588;2022-09-03T02:50:54;20.50;45.00
26909;DHT22;14477;51.038;4.588;2022-09-03T02:53:20;20.50;45.20
26909;DHT22;14477;51.038;4.588;2022-09-03T02:55:46;20.50;45.20
26909;DHT22;14477;51.038;4.588;2022-09-03T02:58:12;20.50;45.30
26909;DHT22;14477;51.038;4.588;2022-09-03T03:00:37;20.40;45.30
26909;DHT22;14477;51.038;4.588;2022-09-03T03:03:04;20.40;45.30
26909;DHT22;14477;51.038;4.588;2022-09-03T03:05:46;20.40;45.30
26909;DHT22;14477;51.038;4.588;2022-09-03T03:08:13;20.40;45.80
26909;DHT22;14477;51.038;4.588;2022-09-03T03:10:46;20.40;45.40
26909;DHT22;14477;51.038;4.588;2022-09-03T03:13:12;20.40;45.40
26909;DHT22;14477;51.038;4.588;2022-09-03T03:15:38;20.40;45.40
26909;DHT22;14477;51.038;4.588;2022-09-03T03:18:04;20.40;45.40
26909;DHT22;14477;51.038;4.588;2022-09-03T03:20:32;20.40;45.50
26909;DHT22;14477;51.038;4.588;2022-09-03T03:23:01;20.40;45.70
26909;DHT22;14477;51.038;4.588;2022-09-03T03:25:26;20.40;46.00
26909;DHT22;14477;51.038;4.588;2022-09-03T03:27:54;20.40;45.90
26909;DHT22;14477;51.038;4.588;2022-09-03T03:30:21;20.40;46.20
26909;DHT22;14477;51.038;4.588;2022-09-03T03:32:48;20.40;46.00
26909;DHT22;14477;51.038;4.588;2022-09-03T03:35:13;20.40;46.10
26909;DHT22;14477;51.038;4.588;2022-09-03T03:37:39;20.40;46.00
26909;DHT22;14477;51.038;4.588;2022-09-03T03:40:06;20.40;46.00
26909;DHT22;14477;51.038;4.588;2022-09-03T03:42:33;20.40;46.20
26909;DHT22;14477;51.038;4.588;2022-09-03T03:44:59;20.40;46.30
26909;DHT22;14477;51.038;4.588;2022-09-03T03:47:27;20.40;46.20
26909;DHT22;14477;51.038;4.588;2022-09-03T03:49:56;20.40;46.40
26909;DHT22;14477;51.038;4.588;2022-09-03T03:52:23;20.40;46.40
26909;DHT22;14477;51.038;4.588;2022-09-03T03:54:50;20.40;46.40
26909;DHT22;14477;51.038;4.588;2022-09-03T03:57:16;20.40;46.40
26909;DHT22;14477;51.038;4.588;2022-09-03T03:59:44;20.40;46.40
26909;DHT22;14477;51.038;4.588;2022-09-03T04:02:11;20.40;46.40
26909;DHT22;14477;51.038;4.588;2022-09-03T04:04:36;20.40;46.60
26909;DHT22;14477;51.038;4.588;2022-09-03T04:07:02;20.40;46.70
26909;DHT22;14477;51.038;4.588;2022-09-03T04:09:28;20.40;46.70
26909;DHT22;14477;51.038;4.588;2022-09-03T04:11:54;20.40;46.80
26909;DHT22;14477;51.038;4.588;2022-09-03T04:14:23;20.40;46.80
26909;DHT22;14477;51.038;4.588;2022-09-03T04:16:48;20.40;46.90
26909;DHT22;14477;51.038;4.588;2022-09-03T04:19:16;20.40;47.00
26909;DHT22;14477;51.038;4.588;2022-09-03T04:21:42;20.40;46.90
26909;DHT22;14477;51.038;4.588;2022-09-03T04:24:08;20.40;47.20
26909;DHT22;14477;51.038;4.588;2022-09-03T04:26:34;20.40;47.40
26909;DHT22;14477;51.038;4.588;2022-09-03T04:29:02;20.40;47.40
26909;DHT22;14477;51.038;4.588;2022-09-03T04:31:29;20.40;47.70
26909;DHT22;14477;51.038;4.588;2022-09-03T04:33:55;20.40;47.60
26909;DHT22;14477;51.038;4.588;2022-09-03T04:36:23;20.30;47.50
26909;DHT22;14477;51.038;4.588;2022-09-03T04:38:51;20.30;47.80
26909;DHT22;14477;51.038;4.588;2022-09-03T04:41:24;20.30;47.90
26909;DHT22;14477;51.038;4.588;2022-09-03T04:43:55;20.30;48.30
26909;DHT22;14477;51.038;4.588;2022-09-03T04:46:23;20.30;48.40
26909;DHT22;14477;51.038;4.588;2022-09-03T04:48:52;20.30;48.10
26909;DHT22;14477;51.038;4.588;2022-09-03T04:51:20;20.30;48.10
26909;DHT22;14477;51.038;4.588;2022-09-03T04:53:47;20.30;48.30
26909;DHT22;14477;51.038;4.588;2022-09-03T04:56:18;20.30;48.30
26909;DHT22;14477;51.038;4.588;2022-09-03T04:58:44;20.30;48.20
26909;DHT22;14477;51.038;4.588;2022-09-03T05:01:14;20.30;48.30
26909;DHT22;14477;51.038;4.588;2022-09-03T05:03:40;20.30;48.40
26909;DHT22;14477;51.038;4.588;2022-09-03T05:06:06;20.30;48.30
26909;DHT22;14477;51.038;4.588;2022-09-03T05:08:33;20.30;48.50
26909;DHT22;14477;51.038;4.588;2022-09-03T05:11:02;20.30;48.50
26909;DHT22;14477;51.038;4.588;2022-09-03T05:13:28;20.30;48.60
26909;DHT22;14477;51.038;4.588;2022-09-03T05:15:59;20.30;49.30
26909;DHT22;14477;51.038;4.588;2022-09-03T05:18:25;20.30;49.00
26909;DHT22;14477;51.038;4.588;2022-09-03T05:20:57;20.30;48.60
26909;DHT22;14477;51.038;4.588;2022-09-03T05:23:24;20.30;49.10
26909;DHT22;14477;51.038;4.588;2022-09-03T05:26:01;20.30;48.60
26909;DHT22;14477;51.038;4.588;2022-09-03T05:28:29;20.30;49.60
26909;DHT22;14477;51.038;4.588;2022-09-03T05:31:03;20.30;48.90
26909;DHT22;14477;51.038;4.588;2022-09-03T05:33:33;20.30;49.50
26909;DHT22;14477;51.038;4.588;2022-09-03T05:36:07;20.30;49.30
26909;DHT22;14477;51.038;4.588;2022-09-03T05:38:34;20.30;49.50
26909;DHT22;14477;51.038;4.588;2022-09-03T05:41:02;20.30;49.00
26909;DHT22;14477;51.038;4.588;2022-09-03T05:43:29;20.30;49.90
26909;DHT22;14477;51.038;4.588;2022-09-03T05:48:31;20.30;49.40
26909;DHT22;14477;51.038;4.588;2022-09-03T05:51:05;20.30;49.40
26909;DHT22;14477;51.038;4.588;2022-09-03T05:53:34;20.30;49.60
26909;DHT22;14477;51.038;4.588;2022-09-03T05:56:02;20.30;49.50
26909;DHT22;14477;51.038;4.588;2022-09-03T05:58:34;20.30;49.40
26909;DHT22;14477;51.038;4.588;2022-09-03T06:01:10;20.30;49.70
26909;DHT22;14477;51.038;4.588;2022-09-03T06:03:37;20.30;50.10
26909;DHT22;14477;51.038;4.588;2022-09-03T06:06:03;20.30;49.50
26909;DHT22;14477;51.038;4.588;2022-09-03T06:08:29;20.30;49.40
26909;DHT22;14477;51.038;4.588;2022-09-03T06:10:59;20.30;49.40
26909;DHT22;14477;51.038;4.588;2022-09-03T06:13:26;20.30;49.90
26909;DHT22;14477;51.038;4.588;2022-09-03T06:16:03;20.30;49.60
26909;DHT22;14477;51.038;4.588;2022-09-03T06:18:30;20.40;50.40
26909;DHT22;14477;51.038;4.588;2022-09-03T06:20:57;20.40;49.70
26909;DHT22;14477;51.038;4.588;2022-09-03T06:23:25;20.40;49.80
26909;DHT22;14477;51.038;4.588;2022-09-03T06:26:08;20.50;49.90
26909;DHT22;14477;51.038;4.588;2022-09-03T06:28:36;20.50;50.70
26909;DHT22;14477;51.038;4.588;2022-09-03T06:31:04;20.50;50.00
26909;DHT22;14477;51.038;4.588;2022-09-03T06:33:31;20.50;50.00
26909;DHT22;14477;51.038;4.588;2022-09-03T06:36:01;20.60;49.90
26909;DHT22;14477;51.038;4.588;2022-09-03T06:38:29;20.60;49.80
26909;DHT22;14477;51.038;4.588;2022-09-03T06:40:58;20.60;49.90
26909;DHT22;14477;51.038;4.588;2022-09-03T06:43:29;20.70;49.90
26909;DHT22;14477;51.038;4.588;2022-09-03T06:46:00;20.70;49.90
26909;DHT22;14477;51.038;4.588;2022-09-03T06:48:28;20.80;50.10
26909;DHT22;14477;51.038;4.588;2022-09-03T06:51:18;20.80;49.80
26909;DHT22;14477;51.038;4.588;2022-09-03T06:53:47;20.90;50.30
26909;DHT22;14477;51.038;4.588;2022-09-03T06:56:19;20.90;50.10
26909;DHT22;14477;51.038;4.588;2022-09-03T06:58:52;21.00;50.10
26909;DHT22;14477;51.038;4.588;2022-09-03T07:01:20;21.10;50.10
26909;DHT22;14477;51.038;4.588;2022-09-03T07:03:51;21.10;50.30
26909;DHT22;14477;51.038;4.588;2022-09-03T07:06:19;21.20;50.40
26909;DHT22;14477;51.038;4.588;2022-09-03T07:08:46;21.40;50.40
26909;DHT22;14477;51.038;4.588;2022-09-03T07:11:14;21.40;50.30
26909;DHT22;14477;51.038;4.588;2022-09-03T07:13:43;21.50;50.60
26909;DHT22;14477;51.038;4.588;2022-09-03T07:16:17;21.60;50.60
26909;DHT22;14477;51.038;4.588;2022-09-03T07:18:44;21.80;50.60
26909;DHT22;14477;51.038;4.588;2022-09-03T07:21:21;21.90;50.40
26909;DHT22;14477;51.038;4.588;2022-09-03T07:23:48;22.00;50.50
26909;DHT22;14477;51.038;4.588;2022-09-03T07:26:16;22.20;50.40
26909;DHT22;14477;51.038;4.588;2022-09-03T07:28:43;22.30;50.20
26909;DHT22;14477;51.038;4.588;2022-09-03T07:31:13;22.40;50.10
26909;DHT22;14477;51.038;4.588;2022-09-03T07:33:42;22.60;50.30
26909;DHT22;14477;51.038;4.588;2022-09-03T07:36:14;22.80;50.40
26909;DHT22;14477;51.038;4.588;2022-09-03T07:38:42;22.90;50.40
26909;DHT22;14477;51.038;4.588;2022-09-03T07:41:10;23.10;50.40
26909;DHT22;14477;51.038;4.588;2022-09-03T07:43:38;23.40;50.30
26909;DHT22;14477;51.038;4.588;2022-09-03T07:46:09;23.60;50.10
26909;DHT22;14477;51.038;4.588;2022-09-03T07:48:41;23.80;50.00
26909;DHT22;14477;51.038;4.588;2022-09-03T07:51:08;24.00;49.80
26909;DHT22;14477;51.038;4.588;2022-09-03T07:53:35;24.20;50.00
26909;DHT22;14477;51.038;4.588;2022-09-03T07:56:05;24.50;50.00
26909;DHT22;14477;51.038;4.588;2022-09-03T07:58:33;24.80;50.40
26909;DHT22;14477;51.038;4.588;2022-09-03T08:01:04;25.30;51.00
26909;DHT22;14477;51.038;4.588;2022-09-03T08:03:31;25.80;51.00
26909;DHT22;14477;51.038;4.588;2022-09-03T08:06:05;26.40;51.60
26909;DHT22;14477;51.038;4.588;2022-09-03T08:08:32;27.10;51.30
26909;DHT22;14477;51.038;4.588;2022-09-03T08:11:11;27.70;50.80
26909;DHT22;14477;51.038;4.588;2022-09-03T08:13:42;28.40;48.60
26909;DHT22;14477;51.038;4.588;2022-09-03T08:16:12;29.00;49.00
26909;DHT22;14477;51.038;4.588;2022-09-03T08:18:38;29.50;48.40
26909;DHT22;14477;51.038;4.588;2022-09-03T08:21:13;30.00;48.10
26909;DHT22;14477;51.038;4.588;2022-09-03T08:23:42;30.60;46.10
26909;DHT22;14477;51.038;4.588;2022-09-03T08:26:08;31.00;46.20
26909;DHT22;14477;51.038;4.588;2022-09-03T08:28:35;31.40;45.50
26909;DHT22;14477;51.038;4.588;2022-09-03T08:31:11;31.70;44.40
26909;DHT22;14477;51.038;4.588;2022-09-03T08:33:42;31.90;42.70
26909;DHT22;14477;51.038;4.588;2022-09-03T08:36:23;32.00;42.30
26909;DHT22;14477;51.038;4.588;2022-09-03T08:38:50;32.00;41.30
26909;DHT22;14477;51.038;4.588;2022-09-03T08:44:21;31.80;40.80
26909;DHT22;14477;51.038;4.588;2022-09-03T08:52:46;31.80;41.50
26909;DHT22;14477;51.038;4.588;2022-09-03T08:55:30;32.00;42.10
26909;DHT22;14477;51.038;4.588;2022-09-03T08:58:16;32.30;41.80
26909;DHT22;14477;51.038;4.588;2022-09-03T09:06:13;33.80;42.20
26909;DHT22;14477;51.038;4.588;2022-09-03T09:12:34;34.70;40.60
26909;DHT22;14477;51.038;4.588;2022-09-03T09:21:39;36.20;38.90
26909;DHT22;14477;51.038;4.588;2022-09-03T09:24:45;36.60;37.80
26909;DHT22;14477;51.038;4.588;2022-09-03T09:27:14;36.80;37.40
26909;DHT22;14477;51.038;4.588;2022-09-03T09:29:48;37.10;37.50
26909;DHT22;14477;51.038;4.588;2022-09-03T09:32:15;37.30;36.90
26909;DHT22;14477;51.038;4.588;2022-09-03T09:34:42;37.50;36.70
26909;DHT22;14477;51.038;4.588;2022-09-03T09:37:13;37.70;36.40
26909;DHT22;14477;51.038;4.588;2022-09-03T09:39:41;37.90;35.10
26909;DHT22;14477;51.038;4.588;2022-09-03T09:42:21;38.10;35.30
26909;DHT22;14477;51.038;4.588;2022-09-03T09:44:47;38.30;34.30
26909;DHT22;14477;51.038;4.588;2022-09-03T09:47:25;38.30;34.40
26909;DHT22;14477;51.038;4.588;2022-09-03T09:49:57;38.50;33.10
26909;DHT22;14477;51.038;4.588;2022-09-03T09:52:25;38.50;33.40
26909;DHT22;14477;51.038;4.588;2022-09-03T09:55:04;38.50;33.20
26909;DHT22;14477;51.038;4.588;2022-09-03T09:57:32;38.70;33.10
26909;DHT22;14477;51.038;4.588;2022-09-03T10:00:28;38.80;32.90
26909;DHT22;14477;51.038;4.588;2022-09-03T10:02:53;39.00;32.60
26909;DHT22;14477;51.038;4.588;2022-09-03T10:05:23;39.00;32.40
26909;DHT22;14477;51.038;4.588;2022-09-03T10:07:59;39.10;31.80
26909;DHT22;14477;51.038;4.588;2022-09-03T10:10:25;39.20;31.20
26909;DHT22;14477;51.038;4.588;2022-09-03T10:13:09;39.30;31.80
26909;DHT22;14477;51.038;4.588;2022-09-03T10:15:44;39.40;30.60
26909;DHT22;14477;51.038;4.588;2022-09-03T10:21:07;39.70;30.20
26909;DHT22;14477;51.038;4.588;2022-09-03T10:23:57;39.80;30.20
26909;DHT22;14477;51.038;4.588;2022-09-03T10:26:24;39.70;29.40
26909;DHT22;14477;51.038;4.588;2022-09-03T10:28:57;39.40;29.40
26909;DHT22;14477;51.038;4.588;2022-09-03T10:37:28;38.20;29.30
26909;DHT22;14477;51.038;4.588;2022-09-03T10:40:18;37.90;29.60
26909;DHT22;14477;51.038;4.588;2022-09-03T10:51:35;36.80;30.50
26909;DHT22;14477;51.038;4.588;2022-09-03T10:57:28;36.50;31.10
26909;DHT22;14477;51.038;4.588;2022-09-03T11:00:11;36.40;31.70
26909;DHT22;14477;51.038;4.588;2022-09-03T11:05:41;36.50;32.40
26909;DHT22;14477;51.038;4.588;2022-09-03T11:08:20;36.60;32.00
26909;DHT22;14477;51.038;4.588;2022-09-03T11:10:54;36.70;32.10
26909;DHT22;14477;51.038;4.588;2022-09-03T11:13:31;36.70;31.90
26909;DHT22;14477;51.038;4.588;2022-09-03T11:16:23;36.80;32.10
26909;DHT22;14477;51.038;4.588;2022-09-03T11:19:00;37.00;32.20
26909;DHT22;14477;51.038;4.588;2022-09-03T11:21:29;37.20;32.60
26909;DHT22;14477;51.038;4.588;2022-09-03T11:24:10;37.60;33.20
26909;DHT22;14477;51.038;4.588;2022-09-03T11:26:39;37.90;32.90
26909;DHT22;14477;51.038;4.588;2022-09-03T11:29:38;38.30;32.80
26909;DHT22;14477;51.038;4.588;2022-09-03T11:32:23;38.60;32.20
26909;DHT22;14477;51.038;4.588;2022-09-03T11:34:52;38.90;32.30
26909;DHT22;14477;51.038;4.588;2022-09-03T11:37:22;39.00;31.30
26909;DHT22;14477;51.038;4.588;2022-09-03T11:39:57;39.10;31.00
26909;DHT22;14477;51.038;4.588;2022-09-03T11:42:30;39.10;30.50
26909;DHT22;14477;51.038;4.588;2022-09-03T11:45:32;39.10;30.50
26909;DHT22;14477;51.038;4.588;2022-09-03T11:47:59;39.00;30.30
26909;DHT22;14477;51.038;4.588;2022-09-03T11:50:31;38.90;30.40
26909;DHT22;14477;51.038;4.588;2022-09-03T11:53:09;38.90;30.10
26909;DHT22;14477;51.038;4.588;2022-09-03T11:56:08;38.70;29.90
26909;DHT22;14477;51.038;4.588;2022-09-03T11:58:38;38.60;30.40
26909;DHT22;14477;51.038;4.588;2022-09-03T12:01:09;38.60;31.00
26909;DHT22;14477;51.038;4.588;2022-09-03T12:15:06;40.00;30.00
26909;DHT22;14477;51.038;4.588;2022-09-03T12:17:37;40.20;29.80
26909;DHT22;14477;51.038;4.588;2022-09-03T12:20:14;40.20;29.80
26909;DHT22;14477;51.038;4.588;2022-09-03T12:22:40;40.20;29.40
26909;DHT22;14477;51.038;4.588;2022-09-03T12:25:11;40.20;29.50
26909;DHT22;14477;51.038;4.588;2022-09-03T12:27:37;40.30;29.60
26909;DHT22;14477;51.038;4.588;2022-09-03T12:30:12;40.30;29.60
26909;DHT22;14477;51.038;4.588;2022-09-03T12:32:38;40.30;29.30
26909;DHT22;14477;51.038;4.588;2022-09-03T12:35:16;40.30;29.00
26909;DHT22;14477;51.038;4.588;2022-09-03T12:37:43;40.20;28.60
26909;DHT22;14477;51.038;4.588;2022-09-03T12:40:21;40.00;28.60
26909;DHT22;14477;51.038;4.588;2022-09-03T12:42:47;39.90;28.30
26909;DHT22;14477;51.038;4.588;2022-09-03T12:45:16;39.60;28.60
26909;DHT22;14477;51.038;4.588;2022-09-03T12:47:43;39.50;28.80
26909;DHT22;14477;51.038;4.588;2022-09-03T12:50:18;39.40;28.70
26909;DHT22;14477;51.038;4.588;2022-09-03T12:52:51;39.20;28.70
26909;DHT22;14477;51.038;4.588;2022-09-03T12:58:21;38.70;28.60
26909;DHT22;14477;51.038;4.588;2022-09-03T13:00:55;38.50;28.90
26909;DHT22;14477;51.038;4.588;2022-09-03T13:03:27;38.30;29.20
26909;DHT22;14477;51.038;4.588;2022-09-03T13:06:00;38.20;29.20
26909;DHT22;14477;51.038;4.588;2022-09-03T13:08:31;38.10;29.20
26909;DHT22;14477;51.038;4.588;2022-09-03T13:10:59;37.80;28.90
26909;DHT22;14477;51.038;4.588;2022-09-03T13:13:33;37.50;28.90
26909;DHT22;14477;51.038;4.588;2022-09-03T13:27:00;35.90;30.00
26909;DHT22;14477;51.038;4.588;2022-09-03T13:35:36;35.60;31.20
26909;DHT22;14477;51.038;4.588;2022-09-03T13:43:36;35.70;31.90
26909;DHT22;14477;51.038;4.588;2022-09-03T13:46:17;35.80;31.90
26909;DHT22;14477;51.038;4.588;2022-09-03T13:48:47;35.90;31.80
26909;DHT22;14477;51.038;4.588;2022-09-03T13:51:57;36.00;31.90
26909;DHT22;14477;51.038;4.588;2022-09-03T13:54:41;36.10;32.10
26909;DHT22;14477;51.038;4.588;2022-09-03T13:57:22;36.20;32.20
26909;DHT22;14477;51.038;4.588;2022-09-03T13:59:54;36.30;31.90
26909;DHT22;14477;51.038;4.588;2022-09-03T14:05:14;36.40;31.80
26909;DHT22;14477;51.038;4.588;2022-09-03T14:07:53;36.40;31.80
26909;DHT22;14477;51.038;4.588;2022-09-03T14:19:00;36.60;31.50
26909;DHT22;14477;51.038;4.588;2022-09-03T14:21:28;36.50;31.40
26909;DHT22;14477;51.038;4.588;2022-09-03T14:24:06;36.50;31.40
26909;DHT22;14477;51.038;4.588;2022-09-03T14:26:36;36.40;31.60
26909;DHT22;14477;51.038;4.588;2022-09-03T14:31:57;36.40;31.80
26909;DHT22;14477;51.038;4.588;2022-09-03T14:42:50;36.50;32.00
26909;DHT22;14477;51.038;4.588;2022-09-03T14:45:33;36.50;31.80
26909;DHT22;14477;51.038;4.588;2022-09-03T14:50:49;36.70;32.10
26909;DHT22;14477;51.038;4.588;2022-09-03T14:56:28;36.80;31.70
26909;DHT22;14477;51.038;4.588;2022-09-03T15:08:01;36.50;31.60
26909;DHT22;14477;51.038;4.588;2022-09-03T15:10:45;36.40;31.40
26909;DHT22;14477;51.038;4.588;2022-09-03T15:13:24;36.20;31.20
26909;DHT22;14477;51.038;4.588;2022-09-03T15:15:54;36.00;31.50
26909;DHT22;14477;51.038;4.588;2022-09-03T15:18:31;35.90;31.50
26909;DHT22;14477;51.038;4.588;2022-09-03T15:35:37;34.60;32.40
26909;DHT22;14477;51.038;4.588;2022-09-03T15:38:38;34.40;32.40
26909;DHT22;14477;51.038;4.588;2022-09-03T15:43:58;34.00;33.30
26909;DHT22;14477;51.038;4.588;2022-09-03T15:46:37;33.80;33.30
26909;DHT22;14477;51.038;4.588;2022-09-03T15:49:42;33.70;33.60
26909;DHT22;14477;51.038;4.588;2022-09-03T15:52:31;33.50;33.60
26909;DHT22;14477;51.038;4.588;2022-09-03T16:00:18;33.20;34.50
26909;DHT22;14477;51.038;4.588;2022-09-03T16:05:39;33.00;34.90
26909;DHT22;14477;51.038;4.588;2022-09-03T16:08:21;32.80;34.90
26909;DHT22;14477;51.038;4.588;2022-09-03T16:13:48;32.60;35.60
26909;DHT22;14477;51.038;4.588;2022-09-03T16:25:13;31.90;36.40
26909;DHT22;14477;51.038;4.588;2022-09-03T16:28:04;31.70;36.70
26909;DHT22;14477;51.038;4.588;2022-09-03T16:33:37;31.50;37.50
26909;DHT22;14477;51.038;4.588;2022-09-03T17:10:22;28.90;47.10
26909;DHT22;14477;51.038;4.588;2022-09-03T17:18:50;28.90;46.70
26909;DHT22;14477;51.038;4.588;2022-09-03T17:21:36;28.80;46.30
26909;DHT22;14477;51.038;4.588;2022-09-03T17:32:26;28.50;46.30
26909;DHT22;14477;51.038;4.588;2022-09-03T17:35:21;28.40;46.60
26909;DHT22;14477;51.038;4.588;2022-09-03T17:40:59;28.20;46.00
26909;DHT22;14477;51.038;4.588;2022-09-03T17:43:38;28.00;45.90
26909;DHT22;14477;51.038;4.588;2022-09-03T17:48:59;27.90;45.80
26909;DHT22;14477;51.038;4.588;2022-09-03T17:51:43;27.80;45.00
26909;DHT22;14477;51.038;4.588;2022-09-03T18:13:26;27.30;46.90
26909;DHT22;14477;51.038;4.588;2022-09-03T18:15:59;27.20;48.00
26909;DHT22;14477;51.038;4.588;2022-09-03T18:18:31;27.20;47.20
26909;DHT22;14477;51.038;4.588;2022-09-03T18:21:00;27.10;46.90
26909;DHT22;14477;51.038;4.588;2022-09-03T18:24:00;27.10;47.10
26909;DHT22;14477;51.038;4.588;2022-09-03T18:26:50;27.10;48.10
26909;DHT22;14477;51.038;4.588;2022-09-03T18:32:31;27.00;47.80
26909;DHT22;14477;51.038;4.588;2022-09-03T18:35:15;27.00;47.10
26909;DHT22;14477;51.038;4.588;2022-09-03T18:38:02;27.00;47.30
26909;DHT22;14477;51.038;4.588;2022-09-03T18:41:05;27.00;47.70
26909;DHT22;14477;51.038;4.588;2022-09-03T18:47:34;27.00;48.80
26909;DHT22;14477;51.038;4.588;2022-09-03T18:50:27;27.00;49.30
26909;DHT22;14477;51.038;4.588;2022-09-03T18:56:06;27.00;48.70
26909;DHT22;14477;51.038;4.588;2022-09-03T19:02:26;26.90;49.90
26909;DHT22;14477;51.038;4.588;2022-09-03T19:05:14;26.80;49.40
26909;DHT22;14477;51.038;4.588;2022-09-03T19:08:14;26.80;48.80
26909;DHT22;14477;51.038;4.588;2022-09-03T19:14:02;26.70;49.60
26909;DHT22;14477;51.038;4.588;2022-09-03T19:17:19;26.70;49.40
26909;DHT22;14477;51.038;4.588;2022-09-03T19:20:36;26.60;50.40
26909;DHT22;14477;51.038;4.588;2022-09-03T19:23:21;26.50;50.30
26909;DHT22;14477;51.038;4.588;2022-09-03T19:29:57;26.50;51.30
26909;DHT22;14477;51.038;4.588;2022-09-03T19:35:43;26.30;49.80
26909;DHT22;14477;51.038;4.588;2022-09-03T19:38:36;26.20;51.10
26909;DHT22;14477;51.038;4.588;2022-09-03T19:41:40;26.10;50.20
26909;DHT22;14477;51.038;4.588;2022-09-03T19:44:58;26.00;51.60
26909;DHT22;14477;51.038;4.588;2022-09-03T19:54:30;25.80;52.00
26909;DHT22;14477;51.038;4.588;2022-09-03T19:57:15;25.80;50.80
26909;DHT22;14477;51.038;4.588;2022-09-03T20:00:02;25.60;50.90
26909;DHT22;14477;51.038;4.588;2022-09-03T20:02:47;25.60;51.10
26909;DHT22;14477;51.038;4.588;2022-09-03T20:05:32;25.60;51.40
26909;DHT22;14477;51.038;4.588;2022-09-03T20:08:18;25.50;51.40
26909;DHT22;14477;51.038;4.588;2022-09-03T20:11:04;25.50;51.70
26909;DHT22;14477;51.038;4.588;2022-09-03T20:13:30;25.40;51.70
26909;DHT22;14477;51.038;4.588;2022-09-03T20:16:44;25.30;51.90
26909;DHT22;14477;51.038;4.588;2022-09-03T20:19:17;25.30;52.60
26909;DHT22;14477;51.038;4.588;2022-09-03T20:25:00;25.20;53.90
26909;DHT22;14477;51.038;4.588;2022-09-03T20:27:43;25.10;53.70
26909;DHT22;14477;51.038;4.588;2022-09-03T20:30:17;25.00;52.80
26909;DHT22;14477;51.038;4.588;2022-09-03T20:51:26;24.50;53.70
26909;DHT22;14477;51.038;4.588;2022-09-03T20:56:39;24.40;54.70
26909;DHT22;14477;51.038;4.588;2022-09-03T21:15:36;24.10;55.40
26909;DHT22;14477;51.038;4.588;2022-09-03T21:18:22;24.10;54.40
26909;DHT22;14477;51.038;4.588;2022-09-03T21:21:17;24.10;55.70
26909;DHT22;14477;51.038;4.588;2022-09-03T21:26:32;24.00;55.80
26909;DHT22;14477;51.038;4.588;2022-09-03T21:31:33;23.80;55.00
26909;DHT22;14477;51.038;4.588;2022-09-03T21:34:19;23.80;55.80
26909;DHT22;14477;51.038;4.588;2022-09-03T21:36:48;23.70;56.90
26909;DHT22;14477;51.038;4.588;2022-09-03T21:39:26;23.70;55.50
26909;DHT22;14477;51.038;4.588;2022-09-03T21:47:12;23.50;57.10
26909;DHT22;14477;51.038;4.588;2022-09-03T21:52:16;23.40;56.30
26909;DHT22;14477;51.038;4.588;2022-09-03T21:54:44;23.40;56.30
26909;DHT22;14477;51.038;4.588;2022-09-03T22:04:46;23.30;56.60
26909;DHT22;14477;51.038;4.588;2022-09-03T22:10:04;23.10;57.30
26909;DHT22;14477;51.038;4.588;2022-09-03T22:12:54;23.10;57.40
26909;DHT22;14477;51.038;4.588;2022-09-03T22:15:22;23.00;57.30
26909;DHT22;14477;51.038;4.588;2022-09-03T22:18:06;23.00;56.60
26909;DHT22;14477;51.038;4.588;2022-09-03T22:20:41;22.90;57.70
26909;DHT22;14477;51.038;4.588;2022-09-03T22:23:23;22.90;56.80
26909;DHT22;14477;51.038;4.588;2022-09-03T22:25:56;22.80;58.40
26909;DHT22;14477;51.038;4.588;2022-09-03T22:28:45;22.80;57.40
26909;DHT22;14477;51.038;4.588;2022-09-03T22:31:25;22.70;58.20
26909;DHT22;14477;51.038;4.588;2022-09-03T22:36:56;22.70;58.40
26909;DHT22;14477;51.038;4.588;2022-09-03T22:39:32;22.60;57.80
26909;DHT22;14477;51.038;4.588;2022-09-03T22:55:35;22.20;59.60
26909;DHT22;14477;51.038;4.588;2022-09-03T22:58:20;22.10;58.30
26909;DHT22;14477;51.038;4.588;2022-09-03T23:00:52;22.10;60.10
26909;DHT22;14477;51.038;4.588;2022-09-03T23:03:24;22.00;59.00